Kolpasevo, Russia
Current Conditions -  °F | °C
As of 5:00 AM on Monday 26 Jan 2015 (Local Time) from UNTT Reporting Station
Broken Clouds Broken Clouds  
Wind Chill: -40°   Ceiling: 23000
Heat Index: -26°   Visibility: 6mi
Dew Point: -29°   Wind: 4mph
Humidity: 83%   Direction: 210°SSW
Pressure: 30.86"   Gusts: NA
Location:  58.32°N, 82.95°E
Report Text: UNTT 252200Z 21002MPS 9999 SCT033 BKN230 M32/M34 Q1045 NOSIGRMK QFE768 21420150
Loading
Personal Weather Stations






























Interactive Weather Map New forecast layout! Learn more

10-Day Weather Forecast

Advertisements
Track Severe Weather on mobile